createdAt,value
2018-08-22T00:01:23.253Z,9.77
2018-08-22T00:03:51.705Z,9.33
2018-08-22T00:06:20.124Z,10.20
2018-08-22T00:08:48.585Z,10.10
2018-08-22T00:11:17.096Z,10.13
2018-08-22T00:13:45.618Z,9.13
2018-08-22T00:16:14.048Z,10.57
2018-08-22T00:18:42.521Z,10.40
2018-08-22T00:21:10.977Z,11.03
2018-08-22T00:23:39.774Z,11.30
2018-08-22T00:26:08.218Z,9.30
2018-08-22T00:28:36.735Z,9.73
2018-08-22T00:31:05.451Z,10.77
2018-08-22T00:33:33.887Z,10.33
2018-08-22T00:36:02.355Z,10.30
2018-08-22T00:38:30.855Z,12.00
2018-08-22T00:41:00.140Z,9.70
2018-08-22T00:43:29.383Z,12.07
2018-08-22T00:45:57.809Z,11.60
2018-08-22T00:48:26.613Z,10.77
2018-08-22T00:50:55.070Z,9.90
2018-08-22T00:53:23.541Z,11.23
2018-08-22T00:55:52.025Z,11.63
2018-08-22T00:58:20.572Z,10.50
2018-08-22T01:00:49.112Z,10.67
2018-08-22T01:03:17.546Z,10.27
2018-08-22T01:05:45.970Z,10.27
2018-08-22T01:08:14.493Z,10.33
2018-08-22T01:10:43.557Z,9.67
2018-08-22T01:13:12.995Z,10.67
2018-08-22T01:15:41.445Z,10.57
2018-08-22T01:18:09.906Z,11.70
2018-08-22T01:20:38.394Z,10.37
2018-08-22T01:23:06.863Z,38.57
2018-08-22T01:25:35.342Z,21.60
2018-08-22T01:28:03.766Z,12.10
2018-08-22T01:30:32.201Z,12.65
2018-08-22T01:33:00.728Z,11.50
2018-08-22T01:35:29.176Z,10.97
2018-08-22T01:37:57.628Z,12.10
2018-08-22T01:40:26.155Z,12.10
2018-08-22T01:42:54.675Z,11.60
2018-08-22T01:45:23.123Z,11.90
2018-08-22T01:47:51.616Z,11.00
2018-08-22T01:50:20.108Z,11.40
2018-08-22T01:52:48.577Z,10.10
2018-08-22T01:55:17.530Z,13.00
2018-08-22T01:57:46.240Z,16.80
2018-08-22T02:00:14.718Z,15.97
2018-08-22T02:02:43.178Z,13.90
2018-08-22T02:05:12.285Z,16.50
2018-08-22T02:07:40.734Z,16.50
2018-08-22T02:10:09.169Z,15.97
2018-08-22T02:12:37.652Z,13.87
2018-08-22T02:15:06.784Z,17.30
2018-08-22T02:17:35.248Z,14.50
2018-08-22T02:20:03.770Z,13.23
2018-08-22T02:22:32.223Z,18.57
2018-08-22T02:25:00.733Z,18.40
2018-08-22T02:27:29.279Z,15.67
2018-08-22T02:29:57.734Z,15.47
2018-08-22T02:32:26.148Z,16.60
2018-08-22T02:34:54.590Z,13.27
2018-08-22T02:37:23.096Z,14.50
2018-08-22T02:39:51.522Z,13.37
2018-08-22T02:42:19.955Z,13.80
2018-08-22T02:44:48.407Z,15.57
2018-08-22T02:47:16.900Z,17.67
2018-08-22T02:49:45.353Z,15.90
2018-08-22T02:52:13.828Z,16.67
2018-08-22T02:54:42.296Z,16.67
2018-08-22T02:57:10.749Z,13.43
2018-08-22T02:59:39.198Z,14.00
2018-08-22T03:02:07.621Z,11.87
2018-08-22T03:04:36.070Z,13.77
2018-08-22T03:07:04.536Z,13.98
2018-08-22T03:09:32.970Z,12.50
2018-08-22T03:12:01.384Z,27.70
2018-08-22T03:14:29.970Z,19.03
2018-08-22T03:16:58.414Z,17.97
2018-08-22T03:19:26.861Z,16.83
2018-08-22T03:21:55.288Z,15.97
2018-08-22T03:24:23.788Z,60.20
2018-08-22T03:26:53.025Z,37.13
2018-08-22T03:29:22.516Z,24.40
2018-08-22T03:31:50.956Z,137.33
2018-08-22T03:34:19.401Z,16.50
2018-08-22T03:36:47.825Z,16.27
2018-08-22T03:39:16.306Z,13.57
2018-08-22T03:41:44.708Z,14.50
2018-08-22T03:44:13.132Z,12.80
2018-08-22T03:46:41.592Z,14.20
2018-08-22T03:49:10.016Z,12.90
2018-08-22T03:51:38.463Z,13.53
2018-08-22T03:54:06.912Z,14.10
2018-08-22T03:56:35.370Z,13.00
2018-08-22T03:59:03.814Z,12.80
2018-08-22T04:01:32.264Z,13.80
2018-08-22T04:04:00.712Z,13.03
2018-08-22T04:06:29.143Z,12.13
2018-08-22T04:08:57.555Z,12.00
2018-08-22T04:11:26.025Z,13.23
2018-08-22T04:13:54.832Z,14.23
2018-08-22T04:16:24.359Z,13.80
2018-08-22T04:18:52.822Z,12.40
2018-08-22T04:21:21.322Z,16.17
2018-08-22T04:23:49.780Z,13.17
2018-08-22T04:26:18.239Z,14.20
2018-08-22T04:28:46.661Z,13.77
2018-08-22T04:31:15.081Z,15.37
2018-08-22T04:33:43.571Z,15.13
2018-08-22T04:36:12.099Z,15.70
2018-08-22T04:38:40.601Z,29.93
2018-08-22T04:41:09.116Z,22.60
2018-08-22T04:43:37.746Z,17.60
2018-08-22T04:46:06.225Z,18.27
2018-08-22T04:48:34.682Z,17.60
2018-08-22T04:51:03.120Z,17.87
2018-08-22T04:53:31.574Z,18.40
2018-08-22T04:56:00.024Z,15.80
2018-08-22T04:58:28.456Z,20.50
2018-08-22T05:00:57.135Z,14.60
2018-08-22T05:03:25.598Z,14.90
2018-08-22T05:05:54.081Z,14.33
2018-08-22T05:08:22.544Z,16.90
2018-08-22T05:10:51.009Z,16.60
2018-08-22T05:13:19.482Z,15.43
2018-08-22T05:15:47.916Z,14.40
2018-08-22T05:18:16.372Z,15.33
2018-08-22T05:20:44.853Z,15.60
2018-08-22T05:23:13.305Z,16.23
2018-08-22T05:25:41.757Z,16.07
2018-08-22T05:28:10.176Z,13.47
2018-08-22T05:30:38.734Z,14.07
2018-08-22T05:33:07.169Z,13.13
2018-08-22T05:35:35.632Z,13.27
2018-08-22T05:38:04.318Z,12.53
2018-08-22T05:40:32.885Z,12.37
2018-08-22T05:43:01.214Z,12.50
2018-08-22T05:45:29.682Z,11.50
2018-08-22T05:47:58.668Z,11.50
2018-08-22T05:50:27.130Z,11.03
2018-08-22T05:52:55.729Z,10.50
2018-08-22T05:55:25.077Z,11.10
2018-08-22T05:57:53.904Z,10.30
2018-08-22T06:00:22.483Z,10.50
2018-08-22T06:02:50.962Z,10.10
2018-08-22T06:05:19.413Z,10.50
2018-08-22T06:07:47.875Z,10.63
2018-08-22T06:10:16.332Z,11.23
2018-08-22T06:12:44.946Z,10.33
2018-08-22T06:15:13.353Z,10.37
2018-08-22T06:17:45.892Z,10.90
2018-08-22T06:20:19.086Z,12.50
2018-08-22T06:22:52.332Z,11.70
2018-08-22T06:25:25.755Z,12.20
2018-08-22T06:27:55.303Z,12.23
2018-08-22T06:30:23.825Z,12.00
2018-08-22T06:32:54.825Z,13.13
2018-08-22T06:35:27.155Z,12.17
2018-08-22T06:40:34.485Z,12.07
2018-08-22T06:43:03.038Z,11.87
2018-08-22T06:45:33.038Z,10.27
2018-08-22T06:48:06.125Z,11.33
2018-08-22T06:50:39.093Z,11.23
2018-08-22T06:53:12.610Z,13.03
2018-08-22T06:55:48.466Z,11.67
2018-08-22T06:58:20.313Z,10.30
2018-08-22T07:00:54.353Z,10.57
2018-08-22T07:03:27.748Z,9.90
2018-08-22T07:05:58.754Z,10.30
2018-08-22T07:08:27.970Z,9.37
2018-08-22T07:10:56.421Z,10.40
2018-08-22T07:13:29.404Z,7.87
2018-08-22T07:16:04.251Z,7.80
2018-08-22T07:18:36.309Z,7.60
2018-08-22T07:21:09.829Z,7.60
2018-08-22T07:23:40.530Z,7.80
2018-08-22T07:26:09.149Z,8.03
2018-08-22T07:28:39.137Z,7.43
2018-08-22T07:31:10.905Z,7.40
2018-08-22T07:33:40.989Z,6.80
2018-08-22T07:36:09.499Z,8.70
2018-08-22T07:38:39.604Z,8.90
2018-08-22T07:41:13.815Z,8.07
2018-08-22T07:43:48.305Z,8.17
2018-08-22T07:46:21.895Z,7.15
2018-08-22T07:48:55.180Z,8.47
2018-08-22T07:51:30.962Z,6.70
2018-08-22T07:54:04.250Z,6.23
2018-08-22T07:56:37.466Z,6.20
2018-08-22T07:59:14.376Z,7.07
2018-08-22T08:01:47.222Z,6.15
2018-08-22T08:04:20.560Z,7.10
2018-08-22T08:06:54.096Z,7.35
2018-08-22T08:09:29.391Z,6.55
2018-08-22T08:12:02.689Z,7.03
2018-08-22T08:14:35.151Z,7.50
2018-08-22T08:17:08.540Z,6.72
2018-08-22T08:19:36.899Z,6.30
2018-08-22T08:22:05.403Z,6.90
2018-08-22T08:24:38.120Z,6.60
2018-08-22T08:27:11.328Z,7.17
2018-08-22T08:29:44.821Z,7.33
2018-08-22T08:34:46.427Z,6.87
2018-08-22T08:37:14.884Z,6.58
2018-08-22T08:39:47.771Z,5.90
2018-08-22T08:42:21.389Z,6.37
2018-08-22T08:44:56.417Z,6.67
2018-08-22T08:47:29.912Z,5.73
2018-08-22T08:50:03.567Z,6.45
2018-08-22T08:52:36.793Z,6.33
2018-08-22T08:55:10.006Z,6.63
2018-08-22T08:57:38.457Z,5.57
2018-08-22T09:00:06.937Z,6.80
2018-08-22T09:02:35.437Z,6.15
2018-08-22T09:05:03.898Z,5.65
2018-08-22T09:07:32.940Z,6.10
2018-08-22T09:10:06.018Z,6.10
2018-08-22T09:12:39.480Z,5.97
2018-08-22T09:15:12.487Z,6.75
2018-08-22T09:17:46.045Z,6.22
2018-08-22T09:20:20.912Z,6.40
2018-08-22T09:22:55.219Z,6.60
2018-08-22T09:25:28.969Z,6.15
2018-08-22T09:28:02.144Z,7.25
2018-08-22T09:33:03.779Z,5.97
2018-08-22T09:35:32.373Z,5.78
2018-08-22T09:38:04.850Z,7.37
2018-08-22T09:40:37.892Z,6.45
2018-08-22T09:43:11.197Z,7.10
2018-08-22T09:48:12.908Z,6.30
2018-08-22T09:50:41.462Z,6.50
2018-08-22T09:53:15.299Z,11.57
2018-08-22T09:55:48.307Z,8.38
2018-08-22T09:58:21.788Z,6.08
2018-08-22T10:00:58.526Z,6.55
2018-08-22T10:03:36.504Z,7.70
2018-08-22T10:06:05.062Z,7.00
2018-08-22T10:08:38.304Z,6.85
2018-08-22T10:11:11.670Z,7.15
2018-08-22T10:13:45.883Z,9.43
2018-08-22T10:16:18.888Z,8.18
2018-08-22T10:18:50.166Z,6.95
2018-08-22T10:21:19.048Z,8.33
2018-08-22T10:23:48.294Z,9.20
2018-08-22T10:26:23.000Z,11.00
2018-08-22T10:28:55.856Z,10.30
2018-08-22T10:31:29.892Z,8.88
2018-08-22T10:34:03.983Z,8.65
2018-08-22T10:36:37.381Z,9.60
2018-08-22T10:39:11.843Z,9.10
2018-08-22T10:41:45.123Z,10.10
2018-08-22T10:44:19.998Z,10.23
2018-08-22T10:46:53.946Z,10.70
2018-08-22T10:49:27.396Z,11.22
2018-08-22T10:52:00.381Z,8.65
2018-08-22T10:54:29.389Z,6.65
2018-08-22T10:56:58.297Z,10.20
2018-08-22T10:59:30.169Z,10.35
2018-08-22T11:02:09.094Z,10.53
2018-08-22T11:04:39.348Z,15.84
2018-08-22T11:07:11.698Z,14.13
2018-08-22T11:09:44.975Z,13.93
2018-08-22T11:12:18.551Z,13.48
2018-08-22T11:14:51.890Z,12.43
2018-08-22T11:17:25.960Z,10.03
2018-08-22T11:19:59.560Z,10.53
2018-08-22T11:22:40.836Z,10.23
2018-08-22T11:25:23.574Z,11.53
2018-08-22T11:28:04.645Z,10.75
2018-08-22T11:30:47.390Z,10.55
2018-08-22T11:33:27.124Z,11.03
2018-08-22T11:35:56.354Z,12.05
2018-08-22T11:38:24.808Z,11.47
2018-08-22T11:40:53.314Z,12.25
2018-08-22T11:43:21.767Z,14.18
2018-08-22T11:45:50.337Z,11.35
2018-08-22T11:48:18.845Z,13.53
2018-08-22T11:50:50.595Z,11.30
2018-08-22T11:53:23.982Z,10.30
2018-08-22T11:56:00.473Z,9.13
2018-08-22T11:58:33.353Z,9.69
2018-08-22T12:01:06.639Z,13.85
2018-08-22T12:03:40.030Z,11.15
2018-08-22T12:06:13.189Z,10.50
2018-08-22T12:11:14.875Z,9.28
2018-08-22T12:13:43.449Z,9.50
2018-08-22T12:16:15.667Z,10.75
2018-08-22T12:18:49.104Z,8.13
2018-08-22T12:21:22.123Z,7.70
2018-08-22T12:23:52.519Z,8.48
2018-08-22T12:26:23.640Z,7.47
2018-08-22T12:28:52.620Z,9.37
2018-08-22T12:31:27.508Z,9.65
2018-08-22T12:33:59.396Z,8.70
2018-08-22T12:36:32.990Z,11.30
2018-08-22T12:39:06.315Z,9.93
2018-08-22T12:41:39.459Z,10.48
2018-08-22T12:44:10.641Z,11.40
2018-08-22T12:46:41.124Z,13.85
2018-08-22T12:49:09.685Z,9.45
2018-08-22T12:51:42.348Z,9.47
2018-08-22T12:54:16.386Z,8.43
2018-08-22T12:56:50.715Z,9.70
2018-08-22T12:59:24.313Z,11.83
2018-08-22T13:01:56.670Z,11.33
2018-08-22T13:04:26.548Z,9.18
2018-08-22T13:06:55.127Z,8.93
2018-08-22T13:09:25.722Z,7.93
2018-08-22T13:12:03.962Z,6.80
2018-08-22T13:14:34.428Z,7.53
2018-08-22T13:17:08.013Z,7.85
2018-08-22T13:19:42.334Z,7.47
2018-08-22T13:22:16.602Z,7.55
2018-08-22T13:24:49.652Z,6.80
2018-08-22T13:27:21.856Z,8.17
2018-08-22T13:32:33.236Z,7.70
2018-08-22T13:35:07.134Z,6.90
2018-08-22T13:37:40.277Z,7.53
2018-08-22T13:40:12.716Z,7.55
2018-08-22T13:42:46.058Z,7.33
2018-08-22T13:47:58.647Z,6.90
2018-08-22T13:50:30.616Z,7.67
2018-08-22T13:53:04.352Z,8.38
2018-08-22T13:55:37.878Z,8.03
2018-08-22T13:58:10.833Z,8.13
2018-08-22T14:03:12.621Z,8.13
2018-08-22T14:05:41.215Z,9.50
2018-08-22T14:08:13.843Z,8.23
2018-08-22T14:10:50.112Z,8.08
2018-08-22T14:13:21.901Z,9.50
2018-08-22T14:15:56.601Z,8.70
2018-08-22T14:18:29.728Z,8.47
2018-08-22T14:21:03.146Z,7.45
2018-08-22T14:23:35.616Z,7.80
2018-08-22T14:28:37.796Z,8.70
2018-08-22T14:31:06.843Z,8.37
2018-08-22T14:33:39.300Z,8.83
2018-08-22T14:36:11.593Z,7.83
2018-08-22T14:38:40.012Z,8.63
2018-08-22T14:41:08.480Z,9.48
2018-08-22T14:43:37.183Z,11.40
2018-08-22T14:46:05.626Z,9.65
2018-08-22T14:48:34.074Z,10.43
2018-08-22T14:51:07.640Z,9.40
2018-08-22T14:53:41.240Z,10.10
2018-08-22T14:56:15.405Z,9.20
2018-08-22T14:58:49.223Z,9.93
2018-08-22T15:01:22.920Z,9.30
2018-08-22T15:03:55.920Z,10.75
2018-08-22T15:06:33.261Z,11.73
2018-08-22T15:09:21.801Z,10.28
2018-08-22T15:11:56.662Z,10.43
2018-08-22T15:14:25.133Z,12.30
2018-08-22T15:16:54.517Z,11.40
2018-08-22T15:19:23.118Z,10.70
2018-08-22T15:21:51.540Z,10.37
2018-08-22T15:24:20.138Z,12.97
2018-08-22T15:26:48.707Z,10.97
2018-08-22T15:29:17.204Z,12.40
2018-08-22T15:31:45.701Z,11.13
2018-08-22T15:34:14.198Z,14.83
2018-08-22T15:36:42.678Z,14.40
2018-08-22T15:39:17.339Z,14.17
2018-08-22T15:41:54.983Z,12.43
2018-08-22T15:44:25.089Z,12.70
2018-08-22T15:46:58.272Z,12.67
2018-08-22T15:49:26.760Z,12.53
2018-08-22T15:51:56.009Z,12.60
2018-08-22T15:54:24.517Z,12.17
2018-08-22T15:56:53.950Z,12.00
2018-08-22T15:59:22.416Z,12.80
2018-08-22T16:01:51.185Z,13.30
2018-08-22T16:04:19.778Z,11.60
2018-08-22T16:06:53.549Z,12.93
2018-08-22T16:09:27.118Z,13.33
2018-08-22T16:11:55.850Z,13.03
2018-08-22T16:14:25.055Z,12.40
2018-08-22T16:16:53.531Z,15.70
2018-08-22T16:19:22.037Z,14.53
2018-08-22T16:21:50.566Z,13.57
2018-08-22T16:24:19.493Z,12.67
2018-08-22T16:26:48.777Z,15.10
2018-08-22T16:29:17.208Z,13.17
2018-08-22T16:31:46.671Z,14.93
2018-08-22T16:34:16.046Z,11.40
2018-08-22T16:36:44.471Z,13.77
2018-08-22T16:39:13.100Z,15.23
2018-08-22T16:41:41.585Z,15.50
2018-08-22T16:44:10.574Z,13.90
2018-08-22T16:46:39.068Z,17.50
2018-08-22T16:49:07.554Z,21.37
2018-08-22T16:51:35.992Z,14.98
2018-08-22T16:54:08.474Z,14.43
2018-08-22T16:56:37.172Z,13.25
2018-08-22T16:59:12.501Z,14.40
2018-08-22T17:01:44.901Z,13.47
2018-08-22T17:04:13.931Z,16.93
2018-08-22T17:06:43.379Z,14.37
2018-08-22T17:09:12.729Z,15.40
2018-08-22T17:11:41.597Z,14.80
2018-08-22T17:14:10.167Z,16.00
2018-08-22T17:16:38.773Z,14.83
2018-08-22T17:19:07.337Z,13.20
2018-08-22T17:21:35.822Z,12.83
2018-08-22T17:24:04.479Z,12.63
2018-08-22T17:26:32.980Z,13.47
2018-08-22T17:29:01.458Z,22.77
2018-08-22T17:31:30.645Z,13.80
2018-08-22T17:34:01.498Z,14.90
2018-08-22T17:36:29.980Z,14.40
2018-08-22T17:38:59.499Z,11.60
2018-08-22T17:41:29.295Z,12.10
2018-08-22T17:44:03.802Z,11.87
2018-08-22T17:46:37.299Z,11.70
2018-08-22T17:49:05.823Z,11.90
2018-08-22T17:51:44.524Z,11.07
2018-08-22T17:54:12.973Z,11.00
2018-08-22T17:56:41.917Z,12.27
2018-08-22T17:59:10.317Z,10.43
2018-08-22T18:01:38.765Z,11.87
2018-08-22T18:04:07.209Z,11.20
2018-08-22T18:06:35.673Z,11.87
2018-08-22T18:09:05.172Z,11.30
2018-08-22T18:11:33.697Z,12.20
2018-08-22T18:14:02.837Z,11.60
2018-08-22T18:16:31.813Z,12.40
2018-08-22T18:19:00.365Z,10.97
2018-08-22T18:21:33.593Z,11.17
2018-08-22T18:24:02.505Z,11.97
2018-08-22T18:26:31.161Z,11.07
2018-08-22T18:28:59.820Z,10.37
2018-08-22T18:31:28.632Z,11.10
2018-08-22T18:33:59.645Z,10.67
2018-08-22T18:36:29.841Z,16.97
2018-08-22T18:39:07.332Z,11.30
2018-08-22T18:41:36.001Z,11.40
2018-08-22T18:44:04.503Z,10.57
2018-08-22T18:46:32.954Z,10.90
2018-08-22T18:49:02.719Z,11.87
2018-08-22T18:51:31.351Z,13.10
2018-08-22T18:54:01.042Z,10.97
2018-08-22T18:56:29.759Z,13.83
2018-08-22T18:58:58.529Z,11.50
2018-08-22T19:01:27.105Z,11.70
2018-08-22T19:03:56.391Z,11.53
2018-08-22T19:06:25.170Z,11.33
2018-08-22T19:08:53.649Z,11.23
2018-08-22T19:11:22.293Z,10.90
2018-08-22T19:13:50.886Z,10.40
2018-08-22T19:16:19.491Z,10.70
2018-08-22T19:18:48.005Z,10.70
2018-08-22T19:21:16.681Z,10.48
2018-08-22T19:23:45.552Z,9.33
2018-08-22T19:26:14.419Z,10.80
2018-08-22T19:28:54.121Z,11.30
2018-08-22T19:31:22.714Z,11.90
2018-08-22T19:33:51.282Z,10.50
2018-08-22T19:36:19.866Z,12.27
2018-08-22T19:38:48.377Z,10.30
2018-08-22T19:41:24.476Z,12.80
2018-08-22T19:43:53.413Z,10.97
2018-08-22T19:46:22.235Z,10.30
2018-08-22T19:48:50.979Z,10.37
2018-08-22T19:51:19.896Z,9.37
2018-08-22T19:54:01.182Z,11.63
2018-08-22T19:56:30.153Z,10.70
2018-08-22T19:58:58.806Z,11.67
2018-08-22T20:01:30.515Z,13.07
2018-08-22T20:03:59.027Z,12.60
2018-08-22T20:06:27.749Z,10.57
2018-08-22T20:08:57.692Z,12.27
2018-08-22T20:11:26.408Z,11.17
2018-08-22T20:14:03.826Z,12.47
2018-08-22T20:16:33.258Z,11.50
2018-08-22T20:19:03.067Z,11.50
2018-08-22T20:21:35.687Z,11.37
2018-08-22T20:24:05.725Z,11.73
2018-08-22T20:26:34.586Z,12.20
2018-08-22T20:29:04.701Z,13.03
2018-08-22T20:31:35.242Z,12.53
2018-08-22T20:34:13.284Z,14.30
2018-08-22T20:36:43.947Z,12.37
2018-08-22T20:39:13.217Z,11.60
2018-08-22T20:41:42.541Z,11.53
2018-08-22T20:44:14.580Z,12.57
2018-08-22T20:46:45.928Z,13.00
2018-08-22T20:49:15.602Z,12.60
2018-08-22T20:51:44.070Z,13.20
2018-08-22T20:54:13.890Z,13.62
2018-08-22T20:56:48.432Z,13.27
2018-08-22T20:59:18.509Z,13.40
2018-08-22T21:01:50.122Z,12.17
2018-08-22T21:04:18.865Z,13.73
2018-08-22T21:06:47.407Z,14.87
2018-08-22T21:09:16.056Z,15.03
2018-08-22T21:11:44.580Z,14.77
2018-08-22T21:14:13.075Z,14.00
2018-08-22T21:16:41.549Z,15.43
2018-08-22T21:19:10.130Z,16.67
2018-08-22T21:21:38.647Z,16.67
2018-08-22T21:24:07.202Z,15.70
2018-08-22T21:26:38.375Z,17.33
2018-08-22T21:29:06.979Z,20.73
2018-08-22T21:31:36.710Z,20.93
2018-08-22T21:34:11.744Z,24.67
2018-08-22T21:36:41.442Z,24.97
2018-08-22T21:39:15.256Z,25.40
2018-08-22T21:41:44.966Z,29.87
2018-08-22T21:44:15.083Z,28.20
2018-08-22T21:46:43.563Z,27.47
2018-08-22T21:49:16.046Z,29.77
2018-08-22T21:51:44.578Z,32.17
2018-08-22T21:54:13.637Z,30.07
2018-08-22T21:56:42.092Z,31.57
2018-08-22T21:59:11.297Z,30.10
2018-08-22T22:01:46.145Z,30.60
2018-08-22T22:04:18.321Z,30.87
2018-08-22T22:06:46.806Z,31.02
2018-08-22T22:09:16.587Z,28.97
2018-08-22T22:11:47.541Z,29.30
2018-08-22T22:14:25.733Z,28.90
2018-08-22T22:16:55.306Z,29.80
2018-08-22T22:19:23.790Z,34.13
2018-08-22T22:21:52.882Z,30.00
2018-08-22T22:24:21.525Z,30.17
2018-08-22T22:26:49.991Z,30.07
2018-08-22T22:29:18.465Z,31.40
2018-08-22T22:31:46.946Z,31.70
2018-08-22T22:34:15.412Z,30.90
2018-08-22T22:36:43.836Z,31.35
2018-08-22T22:39:27.807Z,31.90
2018-08-22T22:41:56.409Z,31.33
2018-08-22T22:44:24.902Z,31.02
2018-08-22T22:46:53.508Z,32.83
2018-08-22T22:49:23.270Z,32.63
2018-08-22T22:51:51.762Z,31.13
2018-08-22T22:54:30.358Z,31.80
2018-08-22T22:56:58.852Z,28.87
2018-08-22T22:59:27.542Z,30.93
2018-08-22T23:01:55.952Z,33.27
2018-08-22T23:04:26.066Z,33.30
2018-08-22T23:07:03.380Z,29.87
2018-08-22T23:09:41.136Z,31.10
2018-08-22T23:12:09.617Z,31.67
2018-08-22T23:14:38.059Z,28.50
2018-08-22T23:17:06.539Z,29.90
2018-08-22T23:19:35.006Z,29.33
2018-08-22T23:22:03.538Z,28.73
2018-08-22T23:24:31.991Z,31.53
2018-08-22T23:27:00.455Z,29.90
2018-08-22T23:29:28.887Z,32.27
2018-08-22T23:31:57.396Z,29.53
2018-08-22T23:34:25.826Z,33.53
2018-08-22T23:36:54.328Z,34.83
2018-08-22T23:39:22.754Z,32.63
2018-08-22T23:41:51.224Z,31.73
2018-08-22T23:44:19.651Z,35.50
2018-08-22T23:46:48.125Z,32.20
2018-08-22T23:49:16.563Z,34.67
2018-08-22T23:51:47.941Z,33.43
2018-08-22T23:54:16.406Z,33.13
2018-08-22T23:56:44.960Z,30.67
2018-08-22T23:59:13.422Z,34.80
